Time;durP1;ratioP1;P1;durP2;ratioP2;P2;SDS_P1;SDS_P2;PMS_P1;PMS_P2;Temp;Humidity;BMP_temperature;BMP_pressure;BME280_temperature;BME280_humidity;BME280_pressure;Samples;Min_cycle;Max_cycle;Signal;HPM_P1;HPM_P2
2021/03/15 00:01:54;;;;;;;1999.90;999.90;;;5.50;99.90;;;;;;5093934;28;20166;-81
2021/03/15 00:04:38;;;;;;;1999.90;999.90;;;5.60;99.90;;;;;;5095117;28;20179;-81
2021/03/15 00:07:04;;;;;;;1999.90;999.90;;;5.60;99.90;;;;;;5095735;28;20333;-81
2021/03/15 00:09:30;;;;;;;1999.90;999.90;;;5.60;99.90;;;;;;5094610;28;20183;-81
2021/03/15 00:11:56;;;;;;;1999.90;999.90;;;5.60;99.90;;;;;;5093292;28;20530;-81
2021/03/15 00:14:24;;;;;;;1999.90;999.90;;;5.60;99.90;;;;;;5093724;28;20179;-81
2021/03/15 00:16:58;;;;;;;1999.90;999.90;;;5.60;99.90;;;;;;5094843;28;20490;-81
2021/03/15 00:19:24;;;;;;;1999.90;999.90;;;5.70;99.90;;;;;;5094140;28;20150;-81
2021/03/15 00:21:50;;;;;;;1999.90;999.90;;;5.70;99.90;;;;;;5095147;28;20213;-81
2021/03/15 00:24:16;;;;;;;1999.90;999.90;;;5.70;99.90;;;;;;5098202;28;20189;-80
2021/03/15 00:26:41;;;;;;;1999.90;999.90;;;5.70;99.90;;;;;;5095389;28;20160;-80
2021/03/15 00:29:13;;;;;;;1999.90;999.90;;;5.70;99.90;;;;;;5095111;28;20174;-80
2021/03/15 00:31:38;;;;;;;1999.90;999.90;;;5.70;99.90;;;;;;5093454;28;20179;-80
2021/03/15 00:34:06;;;;;;;1999.90;999.90;;;5.80;99.90;;;;;;5094092;28;20202;-80
2021/03/15 00:36:32;;;;;;;1999.90;999.90;;;5.80;99.90;;;;;;5094267;28;20579;-80
2021/03/15 00:38:58;;;;;;;1999.90;999.90;;;5.80;99.90;;;;;;5094491;28;20183;-80
2021/03/15 00:41:24;;;;;;;1999.90;999.90;;;5.90;99.90;;;;;;5094205;28;20630;-80
2021/03/15 00:43:49;;;;;;;1999.90;999.90;;;6.00;99.90;;;;;;5094098;28;20183;-80
2021/03/15 00:46:15;;;;;;;1999.90;999.90;;;6.00;99.90;;;;;;5093059;28;20171;-80
2021/03/15 00:48:43;;;;;;;1999.90;999.90;;;6.00;99.90;;;;;;5094402;28;20630;-80
2021/03/15 00:51:09;;;;;;;1999.90;999.90;;;6.00;99.90;;;;;;5094133;28;20163;-80
2021/03/15 00:53:35;;;;;;;1999.90;999.90;;;6.00;99.90;;;;;;5092325;28;20715;-80
2021/03/15 00:56:00;;;;;;;1999.90;999.90;;;6.00;99.90;;;;;;5093992;28;20160;-80
2021/03/15 00:58:26;;;;;;;1999.90;999.90;;;6.00;99.90;;;;;;5092824;28;20777;-80
2021/03/15 01:00:52;;;;;;;1999.90;999.90;;;6.10;99.90;;;;;;5092816;28;20166;-80
2021/03/15 01:03:18;;;;;;;1999.90;999.90;;;6.10;99.90;;;;;;5093455;28;20509;-80
2021/03/15 01:05:46;;;;;;;1999.90;999.90;;;6.10;99.90;;;;;;5079315;28;20417;-80
2021/03/15 01:08:13;;;;;;;1999.90;999.90;;;6.10;99.90;;;;;;5079520;28;20406;-80
2021/03/15 01:10:41;;;;;;;1999.90;999.90;;;6.00;99.90;;;;;;5062024;28;20591;-80
2021/03/15 01:13:09;;;;;;;1999.90;999.90;;;6.10;99.90;;;;;;5078210;28;20203;-80
2021/03/15 01:15:36;;;;;;;1999.90;999.90;;;6.10;99.90;;;;;;5079594;28;20168;-80
2021/03/15 01:18:02;;;;;;;1999.90;999.90;;;6.10;99.90;;;;;;5079853;28;20527;-80
2021/03/15 01:20:29;;;;;;;1999.90;999.90;;;6.10;99.90;;;;;;5080349;28;20194;-80
2021/03/15 01:22:55;;;;;;;1999.90;999.90;;;6.10;99.90;;;;;;5079270;28;20765;-80
2021/03/15 01:25:35;;;;;;;1999.90;999.90;;;6.10;99.90;;;;;;5079501;28;20172;-80
2021/03/15 01:28:04;;;;;;;1999.90;999.90;;;6.10;99.90;;;;;;5078529;28;20214;-80
2021/03/15 01:30:31;;;;;;;1999.90;999.90;;;6.10;99.90;;;;;;5079191;28;20221;-80
2021/03/15 01:32:57;;;;;;;1999.90;999.90;;;6.10;99.90;;;;;;5078836;28;20588;-81
2021/03/15 01:35:24;;;;;;;1999.90;999.90;;;6.00;99.90;;;;;;5079428;28;20160;-81
2021/03/15 01:37:50;;;;;;;1999.90;999.90;;;5.90;99.90;;;;;;5079018;28;20526;-80
2021/03/15 01:40:16;;;;;;;1999.90;999.90;;;5.90;99.90;;;;;;5078133;28;20160;-80
2021/03/15 01:42:43;;;;;;;1999.90;999.90;;;5.90;99.90;;;;;;5079465;28;20163;-80
2021/03/15 01:45:10;;;;;;;1999.90;999.90;;;5.90;99.90;;;;;;5079099;28;20178;-81
2021/03/15 01:47:40;;;;;;;1999.90;999.90;;;5.90;99.90;;;;;;5079561;28;20172;-80
2021/03/15 01:50:07;;;;;;;1999.90;999.90;;;5.90;99.90;;;;;;5079630;28;20168;-80
2021/03/15 01:52:35;;;;;;;1999.90;999.90;;;5.90;99.90;;;;;;5079613;28;20225;-80
2021/03/15 01:55:01;;;;;;;1999.90;999.90;;;5.90;99.90;;;;;;5077484;28;20724;-80
2021/03/15 01:57:27;;;;;;;1999.90;999.90;;;6.00;99.90;;;;;;5078899;28;20164;-80
2021/03/15 01:59:59;;;;;;;1999.90;999.90;;;6.00;99.90;;;;;;5079479;28;20176;-81
2021/03/15 02:02:26;;;;;;;1999.90;999.90;;;6.00;99.90;;;;;;5078762;28;20202;-81
2021/03/15 02:04:53;;;;;;;1999.90;999.90;;;6.00;99.90;;;;;;5077743;28;20198;-81
2021/03/15 02:07:18;;;;;;;1999.90;999.90;;;6.00;99.90;;;;;;5080369;28;20164;-80
2021/03/15 02:09:44;;;;;;;1999.90;999.90;;;6.10;99.90;;;;;;5078954;28;20167;-81
2021/03/15 02:12:52;;;;;;;1999.90;999.90;;;6.10;99.90;;;;;;5077529;28;20175;-81
2021/03/15 02:15:55;;;;;;;1999.90;999.90;;;6.10;99.90;;;;;;5077847;28;20507;-80
2021/03/15 02:18:38;;;;;;;1999.90;999.90;;;6.10;99.90;;;;;;5078550;28;20166;-81
2021/03/15 02:21:25;;;;;;;1999.90;999.90;;;6.10;99.90;;;;;;5077876;28;20557;-81
2021/03/15 02:24:17;;;;;;;1999.90;999.90;;;6.10;99.90;;;;;;5078345;28;20190;-81
2021/03/15 02:27:11;;;;;;;1999.90;999.90;;;6.10;99.90;;;;;;5077062;28;20160;-80
2021/03/15 02:29:42;;;;;;;1999.90;999.90;;;6.10;99.90;;;;;;5078359;28;20172;-81
2021/03/15 02:32:14;;;;;;;1999.90;999.90;;;6.00;99.90;;;;;;5077955;28;20167;-81
2021/03/15 02:35:07;;;;;;;1999.90;999.90;;;6.00;99.90;;;;;;5078238;28;20186;-81
2021/03/15 02:38:03;;;;;;;1999.90;999.90;;;6.00;99.90;;;;;;5140739;22;21117;-79
2021/03/15 02:40:48;;;;;;;1999.90;999.90;;;6.00;99.90;;;;;;5032935;28;20696;-79
2021/03/15 02:43:23;;;;;;;1999.90;999.90;;;6.00;99.90;;;;;;5036562;28;20663;-80
2021/03/15 02:46:01;;;;;;;1999.90;999.90;;;6.00;99.90;;;;;;5036458;28;20172;-79
2021/03/15 02:48:27;;;;;;;1999.90;999.90;;;5.90;99.90;;;;;;5036740;28;20155;-82
2021/03/15 02:50:57;;;;;;;1999.90;999.90;;;6.00;99.90;;;;;;5035085;28;20586;-81
2021/03/15 02:53:30;;;;;;;1999.90;999.90;;;5.90;99.90;;;;;;5035725;28;20255;-81
2021/03/15 02:56:03;;;;;;;1999.90;999.90;;;5.90;99.90;;;;;;5036436;28;20157;-82
2021/03/15 02:58:31;;;;;;;1999.90;999.90;;;5.90;99.90;;;;;;5036746;28;20200;-82
2021/03/15 03:01:02;;;;;;;1999.90;999.90;;;5.90;99.90;;;;;;5036341;28;20192;-82
2021/03/15 03:03:28;;;;;;;1999.90;999.90;;;5.90;99.90;;;;;;5034920;28;20193;-82
2021/03/15 03:05:55;;;;;;;1999.90;999.90;;;5.80;99.90;;;;;;5036109;28;20192;-81
2021/03/15 03:08:26;;;;;;;1999.90;999.90;;;5.80;99.90;;;;;;5036194;28;20231;-82
2021/03/15 03:10:56;;;;;;;1999.90;999.90;;;5.70;99.90;;;;;;5036756;28;20180;-82
2021/03/15 03:13:26;;;;;;;1999.90;999.90;;;5.80;99.90;;;;;;5036272;28;20219;-82
2021/03/15 03:15:57;;;;;;;1999.90;999.90;;;5.80;99.90;;;;;;5035327;28;20161;-82
2021/03/15 03:18:24;;;;;;;1999.90;999.90;;;5.80;99.90;;;;;;5036349;28;20232;-82
2021/03/15 03:20:54;;;;;;;1999.90;999.90;;;5.90;99.90;;;;;;5035175;28;20246;-81
2021/03/15 03:23:23;;;;;;;1999.90;999.90;;;5.80;99.90;;;;;;5036165;28;20193;-81
2021/03/15 03:25:52;;;;;;;1999.90;999.90;;;5.80;99.90;;;;;;5036005;28;20540;-82
2021/03/15 03:28:23;;;;;;;1999.90;999.90;;;5.90;99.90;;;;;;5035963;28;20196;-82
2021/03/15 03:30:50;;;;;;;1999.90;999.90;;;5.90;99.90;;;;;;5036512;28;20165;-82
2021/03/15 03:33:18;;;;;;;1999.90;999.90;;;5.80;99.90;;;;;;5036594;28;20284;-82
2021/03/15 03:35:44;;;;;;;1999.90;999.90;;;5.90;99.90;;;;;;5035871;28;20663;-82
2021/03/15 03:38:10;;;;;;;1999.90;999.90;;;5.90;99.90;;;;;;5036557;28;20189;-82
2021/03/15 03:40:36;;;;;;;1999.90;999.90;;;5.90;99.90;;;;;;5036249;28;20197;-82
2021/03/15 03:43:03;;;;;;;1999.90;999.90;;;5.90;99.90;;;;;;5036676;28;20204;-82
2021/03/15 03:45:29;;;;;;;1999.90;999.90;;;6.00;99.90;;;;;;5036309;28;20161;-82
2021/03/15 03:47:55;;;;;;;1999.90;999.90;;;5.90;99.90;;;;;;5036326;28;20169;-82
2021/03/15 03:50:27;;;;;;;1999.90;999.90;;;5.90;99.90;;;;;;5036361;28;20499;-82
2021/03/15 03:53:09;;;;;;;1999.90;999.90;;;6.00;99.90;;;;;;5036068;28;20188;-82
2021/03/15 03:55:46;;;;;;;1999.90;999.90;;;6.10;99.90;;;;;;5035966;28;20153;-82
2021/03/15 03:58:14;;;;;;;1999.90;999.90;;;6.00;99.90;;;;;;5036459;28;20149;-82
2021/03/15 04:00:40;;;;;;;1999.90;999.90;;;5.90;99.90;;;;;;5036016;28;20640;-82
2021/03/15 04:03:17;;;;;;;1999.90;999.90;;;6.00;99.90;;;;;;5034058;28;20193;-82
2021/03/15 04:05:50;;;;;;;1999.90;999.90;;;5.90;99.90;;;;;;5034885;28;20223;-82
2021/03/15 04:08:23;;;;;;;1999.90;999.90;;;6.00;99.90;;;;;;5035933;28;20157;-82
2021/03/15 04:10:50;;;;;;;1999.90;999.90;;;5.90;99.90;;;;;;5036118;28;20219;-81
2021/03/15 04:13:24;;;;;;;1999.90;999.90;;;5.90;99.90;;;;;;5034937;28;20207;-82
2021/03/15 04:15:50;;;;;;;1999.90;999.90;;;5.90;99.90;;;;;;5036060;28;20573;-81
2021/03/15 04:18:19;;;;;;;1999.90;999.90;;;5.90;99.90;;;;;;5035603;28;20166;-82
2021/03/15 04:20:50;;;;;;;1999.90;999.90;;;5.90;99.90;;;;;;5036083;28;20396;-82
2021/03/15 04:23:20;;;;;;;1999.90;999.90;;;5.90;99.90;;;;;;5036069;28;20185;-82
2021/03/15 04:25:49;;;;;;;1999.90;999.90;;;5.90;99.90;;;;;;5036306;28;20180;-81
2021/03/15 04:28:16;;;;;;;1999.90;999.90;;;5.90;99.90;;;;;;5035763;28;20167;-82
2021/03/15 04:30:43;;;;;;;1999.90;999.90;;;6.00;99.90;;;;;;5036033;28;20165;-82
2021/03/15 04:33:10;;;;;;;1999.90;999.90;;;6.00;99.90;;;;;;5036154;28;20193;-82
2021/03/15 04:35:37;;;;;;;1999.90;999.90;;;6.10;99.90;;;;;;5035589;28;20153;-82
2021/03/15 04:38:08;;;;;;;1999.90;999.90;;;6.10;99.90;;;;;;5036023;28;20181;-82
2021/03/15 04:40:36;;;;;;;1999.90;999.90;;;6.10;99.90;;;;;;5038616;28;20682;-82
2021/03/15 04:43:03;;;;;;;1999.90;999.90;;;6.10;99.90;;;;;;5038949;28;20196;-81
2021/03/15 04:45:33;;;;;;;1999.90;999.90;;;6.10;99.90;;;;;;5039279;28;20165;-82
2021/03/15 04:48:04;;;;;;;1999.90;999.90;;;6.10;99.90;;;;;;5038904;28;20191;-82
2021/03/15 04:50:32;;;;;;;1999.90;999.90;;;6.20;99.90;;;;;;5039244;28;20630;-82
2021/03/15 04:52:59;;;;;;;1999.90;999.90;;;6.20;99.90;;;;;;5039229;28;20185;-82
2021/03/15 04:55:26;;;;;;;1999.90;999.90;;;6.20;99.90;;;;;;5039079;28;20158;-82
2021/03/15 04:57:54;;;;;;;1999.90;999.90;;;6.20;99.90;;;;;;5038025;28;20172;-82
2021/03/15 05:00:21;;;;;;;1999.90;999.90;;;6.20;99.90;;;;;;5039726;28;20168;-81
2021/03/15 05:02:49;;;;;;;1999.90;999.90;;;6.30;99.90;;;;;;5039275;28;20166;-81
2021/03/15 05:05:15;;;;;;;1999.90;999.90;;;6.20;99.90;;;;;;5038719;28;20176;-82
2021/03/15 05:07:44;;;;;;;1999.90;999.90;;;6.20;99.90;;;;;;5038999;28;20170;-82
2021/03/15 05:10:12;;;;;;;1999.90;999.90;;;6.30;99.90;;;;;;5038977;28;20161;-82
2021/03/15 05:12:39;;;;;;;1999.90;999.90;;;6.30;99.90;;;;;;5038846;28;20200;-82
2021/03/15 05:15:07;;;;;;;1999.90;999.90;;;6.30;99.90;;;;;;5038678;28;20177;-82
2021/03/15 05:17:38;;;;;;;1999.90;999.90;;;6.30;99.90;;;;;;5038597;28;20168;-82
2021/03/15 05:20:08;;;;;;;1999.90;999.90;;;6.40;99.90;;;;;;5038613;28;20206;-81
2021/03/15 05:22:37;;;;;;;1999.90;999.90;;;6.40;99.90;;;;;;5036909;28;20162;-82
2021/03/15 05:25:05;;;;;;;1999.90;999.90;;;6.40;99.90;;;;;;5038313;28;20196;-82
2021/03/15 05:27:33;;;;;;;1999.90;999.90;;;6.30;99.90;;;;;;5038746;28;20169;-82
2021/03/15 05:30:03;;;;;;;1999.90;999.90;;;6.30;99.90;;;;;;5038417;28;20161;-82
2021/03/15 05:32:32;;;;;;;1999.90;999.90;;;6.30;99.90;;;;;;5038735;28;20228;-82
2021/03/15 05:35:00;;;;;;;1999.90;999.90;;;6.30;99.90;;;;;;5039277;28;20720;-82
2021/03/15 05:37:27;;;;;;;1999.90;999.90;;;6.20;99.90;;;;;;5038676;28;20616;-82
2021/03/15 05:39:53;;;;;;;1999.90;999.90;;;6.30;99.90;;;;;;5038809;28;20165;-82
2021/03/15 05:42:22;;;;;;;1999.90;999.90;;;6.20;99.90;;;;;;5038124;28;20227;-82
2021/03/15 05:45:19;;;;;;;1999.90;999.90;;;6.30;99.90;;;;;;5036646;28;20189;-82
2021/03/15 05:47:53;;;;;;;1999.90;999.90;;;6.20;99.90;;;;;;5037785;28;20153;-82
2021/03/15 05:51:00;;;;;;;1999.90;999.90;;;6.10;99.90;;;;;;5038322;28;20164;-81
2021/03/15 05:53:47;;;;;;;1999.90;999.90;;;6.00;99.90;;;;;;5021851;28;20623;-82
2021/03/15 05:56:16;;;;;;;1999.90;999.90;;;6.00;99.90;;;;;;5038014;28;20154;-82
2021/03/15 05:58:51;;;;;;;1999.90;999.90;;;6.00;99.90;;;;;;5038304;28;20165;-82
2021/03/15 06:01:29;;;;;;;1999.90;999.90;;;5.90;99.90;;;;;;5038287;28;20149;-82
2021/03/15 06:04:03;;;;;;;1999.90;999.90;;;5.90;99.90;;;;;;5036430;28;20189;-82
2021/03/15 06:06:38;;;;;;;1999.90;999.90;;;5.90;99.90;;;;;;5038212;28;20169;-82
2021/03/15 06:09:05;;;;;;;1999.90;999.90;;;5.90;99.90;;;;;;5037438;28;20701;-82
2021/03/15 06:11:44;;;;;;;1999.90;999.90;;;5.80;99.90;;;;;;5036763;28;20231;-82
2021/03/15 06:14:15;;;;;;;1999.90;999.90;;;5.80;99.90;;;;;;5037990;28;20279;-82
2021/03/15 06:16:41;;;;;;;1999.90;999.90;;;5.70;99.90;;;;;;5038473;28;20149;-83
2021/03/15 06:19:07;;;;;;;1999.90;999.90;;;5.70;99.90;;;;;;5037734;28;20169;-82
2021/03/15 06:21:35;;;;;;;1999.90;999.90;;;5.80;99.90;;;;;;5037757;28;20184;-82
2021/03/15 06:24:01;;;;;;;1999.90;999.90;;;5.70;99.90;;;;;;5037523;28;20188;-82
2021/03/15 06:26:29;;;;;;;1999.90;999.90;;;5.80;99.90;;;;;;5036496;28;20173;-82
2021/03/15 06:28:59;;;;;;;1999.90;999.90;;;5.80;99.90;;;;;;5036392;28;20232;-82
2021/03/15 06:31:27;;;;;;;1999.90;999.90;;;5.90;99.90;;;;;;5037873;28;20158;-82
2021/03/15 06:33:54;;;;;;;1999.90;999.90;;;5.90;99.90;;;;;;5037058;28;20197;-82
2021/03/15 06:36:20;;;;;;;1999.90;999.90;;;5.90;99.90;;;;;;5035993;28;20299;-82
2021/03/15 06:38:47;;;;;;;1999.90;999.90;;;5.90;99.90;;;;;;5035856;28;20212;-82
2021/03/15 06:41:15;;;;;;;1999.90;999.90;;;5.90;99.90;;;;;;5036570;28;20458;-83
2021/03/15 06:43:41;;;;;;;1999.90;999.90;;;5.90;99.90;;;;;;5037961;28;20176;-83
2021/03/15 06:46:07;;;;;;;1999.90;999.90;;;6.00;99.90;;;;;;5037642;28;20176;-83
2021/03/15 06:48:33;;;;;;;1999.90;999.90;;;6.00;99.90;;;;;;5037523;28;20505;-83
2021/03/15 06:50:59;;;;;;;1999.90;999.90;;;5.90;99.90;;;;;;5037501;28;20172;-82
2021/03/15 06:53:39;;;;;;;1999.90;999.90;;;5.90;99.90;;;;;;5037020;28;20747;-82
2021/03/15 06:56:14;;;;;;;1999.90;999.90;;;6.00;99.90;;;;;;5037564;28;20232;-82
2021/03/15 06:58:59;;;;;;;1999.90;999.90;;;6.00;99.90;;;;;;5036333;28;20161;-82
2021/03/15 07:01:26;;;;;;;1999.90;999.90;;;6.00;99.90;;;;;;5038983;28;20248;-83
2021/03/15 07:04:04;;;;;;;1999.90;999.90;;;6.00;99.90;;;;;;5037826;28;20246;-83
2021/03/15 07:06:41;;;;;;;1999.90;999.90;;;6.00;99.90;;;;;;5038220;28;20161;-83
2021/03/15 07:09:16;;;;;;;1999.90;999.90;;;6.10;99.90;;;;;;5037498;28;20260;-83
2021/03/15 07:11:43;;;;;;;1999.90;999.90;;;6.10;99.90;;;;;;5038064;28;20244;-83
2021/03/15 07:14:26;;;;;;;1999.90;999.90;;;6.10;99.90;;;;;;5038025;28;20201;-83
2021/03/15 07:16:57;;;;;;;1999.90;999.90;;;6.10;99.90;;;;;;5038694;28;20149;-83
2021/03/15 07:19:24;;;;;;;1999.90;999.90;;;6.20;99.90;;;;;;5038415;28;20153;-83
2021/03/15 07:21:49;;;;;;;1999.90;999.90;;;6.30;99.90;;;;;;5038555;28;20165;-82
2021/03/15 07:24:15;;;;;;;1999.90;999.90;;;6.30;99.90;;;;;;5038690;28;20581;-83
2021/03/15 07:26:45;;;;;;;1999.90;999.90;;;6.40;99.90;;;;;;5038901;28;20180;-83
2021/03/15 07:29:18;;;;;;;1999.90;999.90;;;6.40;99.90;;;;;;5038616;28;20635;-83
2021/03/15 07:31:48;;;;;;;1999.90;999.90;;;6.50;99.90;;;;;;5038082;28;20169;-83
2021/03/15 07:34:23;;;;;;;1999.90;999.90;;;6.50;99.90;;;;;;5038925;28;20189;-83
2021/03/15 07:36:51;;;;;;;1999.90;999.90;;;6.50;99.90;;;;;;5039221;28;20153;-82
2021/03/15 07:39:17;;;;;;;1999.90;999.90;;;6.60;99.90;;;;;;5037652;28;20189;-83
2021/03/15 07:41:46;;;;;;;1999.90;999.90;;;6.60;99.90;;;;;;5038067;28;20157;-82
2021/03/15 07:44:38;;;;;;;1999.90;999.90;;;6.60;99.90;;;;;;5259224;22;20229;-83
2021/03/15 07:47:19;;;;;;;;;;;;;;;;;;;;;
2021/03/15 07:54:01;;;;;;;1999.90;999.90;;;6.70;99.90;;;;;;5033655;28;20213;-83
2021/03/15 07:56:39;;;;;;;;;;;;;;;;;;;;;
2021/03/15 08:00:50;;;;;;;1999.90;999.90;;;6.80;99.90;;;;;;5007394;28;20719;-83
2021/03/15 08:03:14;;;;;;;1999.90;999.90;;;6.70;99.90;;;;;;5037887;28;20648;-83
2021/03/15 08:06:00;;;;;;;1999.90;999.90;;;6.80;99.90;;;;;;5038833;28;20161;-83
2021/03/15 08:08:30;;;;;;;1999.90;999.90;;;6.80;99.90;;;;;;5038487;28;20187;-83
2021/03/15 08:11:28;;;;;;;1999.90;999.90;;;6.80;99.90;;;;;;5038998;28;20655;-83
2021/03/15 08:17:29;;;;;;;1999.90;999.90;;;6.90;99.90;;;;;;5043629;28;20165;-82
2021/03/15 08:20:10;;;;;;;1999.90;999.90;;;6.90;99.90;;;;;;5043799;28;20168;-83
2021/03/15 08:22:51;;;;;;;1999.90;999.90;;;6.80;99.90;;;;;;5044184;28;20609;-83
2021/03/15 08:26:05;;;;;;;1999.90;999.90;;;6.80;99.90;;;;;;5023879;28;20220;-83
2021/03/15 08:28:42;;;;;;;1999.90;999.90;;;7.00;99.90;;;;;;5023809;28;20219;-83
2021/03/15 08:31:55;;;;;;;1999.90;999.90;;;7.20;99.90;;;;;;5023948;28;20162;-83
2021/03/15 08:37:44;;;;;;;1999.90;999.90;;;7.40;99.90;;;;;;5004519;28;20178;-82
2021/03/15 08:40:54;;;;;;;1999.90;999.90;;;7.50;99.90;;;;;;5038515;28;20200;-83
2021/03/15 08:43:33;;;;;;;1999.90;999.90;;;7.80;99.90;;;;;;5022163;28;20202;-83
2021/03/15 08:49:20;;;;;;;;;;;;;;;;;;;;;
2021/03/15 08:52:47;;;;;;;1999.90;999.90;;;8.00;99.90;;;;;;5042553;28;20264;-83
2021/03/15 08:55:54;;;;;;;1999.90;999.90;;;7.90;99.90;;;;;;5043188;28;20240;-82
2021/03/15 08:58:45;;;;;;;1999.90;999.90;;;8.00;99.90;;;;;;5041888;28;20153;-83
2021/03/15 09:01:12;;;;;;;1999.90;999.90;;;8.00;99.90;;;;;;5041551;28;20256;-83
2021/03/15 09:07:35;;;;;;;1999.90;999.90;;;8.00;99.90;;;;;;5040593;28;20217;-80
2021/03/15 09:10:49;;;;;;;1999.90;999.90;;;8.00;99.90;;;;;;5037797;28;20513;-81
2021/03/15 09:13:47;;;;;;;1999.90;999.90;;;8.10;99.90;;;;;;5034965;28;20212;-79
2021/03/15 09:16:52;;;;;;;1999.90;999.90;;;8.10;99.90;;;;;;5034732;28;20177;-82
2021/03/15 09:20:06;;;;;;;1999.90;999.90;;;8.00;99.90;;;;;;5039918;28;20216;-81
2021/03/15 09:26:24;;;;;;;;;;;;;;;;;;;;;
2021/03/15 09:29:08;;;;;;;1999.90;999.90;;;7.80;99.90;;;;;;5038119;28;20229;-81
2021/03/15 09:32:05;;;;;;;1999.90;999.90;;;7.60;99.90;;;;;;5037014;28;20560;-80
2021/03/15 09:34:37;;;;;;;1999.90;999.90;;;7.60;99.90;;;;;;5037376;28;20574;-80
2021/03/15 09:37:12;;;;;;;1999.90;999.90;;;7.60;99.90;;;;;;5037086;28;20161;-80
2021/03/15 09:39:43;;;;;;;1999.90;999.90;;;7.70;99.90;;;;;;5037409;28;20165;-80
2021/03/15 09:42:19;;;;;;;1999.90;999.90;;;7.80;99.90;;;;;;5037204;28;20185;-81
2021/03/15 09:44:45;;;;;;;1999.90;999.90;;;7.90;99.90;;;;;;5037465;28;20680;-80
2021/03/15 09:47:41;;;;;;;1999.90;999.90;;;7.90;99.90;;;;;;5037574;28;20168;-78
2021/03/15 09:50:35;;;;;;;1999.90;999.90;;;7.80;99.90;;;;;;5035536;28;20697;-82
2021/03/15 09:53:46;;;;;;;1999.90;999.90;;;7.90;99.90;;;;;;5037907;28;20177;-80
2021/03/15 09:57:07;;;;;;;1999.90;999.90;;;8.00;99.90;;;;;;5030105;28;20663;-79
2021/03/15 10:00:18;;;;;;;1999.90;999.90;;;8.00;99.90;;;;;;5037603;28;20170;-82
2021/03/15 10:03:26;;;;;;;1999.90;999.90;;;7.90;99.90;;;;;;5037034;28;20206;-78
2021/03/15 10:06:09;;;;;;;1999.90;999.90;;;8.10;99.90;;;;;;5038254;28;20180;-79
2021/03/15 10:12:21;;;;;;;1999.90;999.90;;;8.60;99.90;;;;;;5034608;28;20169;-80
2021/03/15 10:15:37;;;;;;;1999.90;999.90;;;8.70;99.90;;;;;;5010654;28;20244;-79
2021/03/15 10:18:49;;;;;;;1999.90;999.90;;;8.70;99.90;;;;;;5016915;28;20173;-79
2021/03/15 10:22:18;;;;;;;1999.90;999.90;;;8.70;99.90;;;;;;5022721;28;20659;-80
2021/03/15 10:25:16;;;;;;;1999.90;999.90;;;8.80;99.90;;;;;;4978913;28;20213;-79
2021/03/15 10:31:15;;;;;;;1999.90;999.90;;;8.80;99.90;;;;;;5034236;28;20759;-80
2021/03/15 10:34:16;;;;;;;1999.90;999.90;;;8.80;99.90;;;;;;5035424;23;20252;-79
2021/03/15 10:39:55;;;;;;;1999.90;999.90;;;8.90;99.90;;;;;;5033702;28;20722;-79
2021/03/15 10:42:57;;;;;;;1999.90;999.90;;;8.80;99.90;;;;;;5037435;28;20200;-81
2021/03/15 10:45:51;;;;;;;1999.90;999.90;;;8.70;99.90;;;;;;5017595;28;20162;-78
2021/03/15 10:49:12;;;;;;;1999.90;999.90;;;8.60;99.90;;;;;;5017661;28;20617;-79
2021/03/15 10:51:56;;;;;;;;;;;;;;;;;;;;;
2021/03/15 10:54:41;;;;;;;1999.90;999.90;;;9.10;99.90;;;;;;5014296;28;20228;-78
2021/03/15 10:57:19;;;;;;;1999.90;999.90;;;9.30;99.90;;;;;;5017437;28;20154;-81
2021/03/15 10:59:47;;;;;;;1999.90;999.90;;;9.50;99.90;;;;;;5033793;28;20224;-78
2021/03/15 11:02:23;;;;;;;1999.90;999.90;;;9.60;99.90;;;;;;5016322;28;20166;-79
2021/03/15 11:04:58;;;;;;;1999.90;999.90;;;9.70;99.90;;;;;;5018475;28;20540;-78
2021/03/15 11:07:30;;;;;;;1999.90;999.90;;;9.70;99.90;;;;;;5017970;28;20173;-78
2021/03/15 11:10:01;;;;;;;1999.90;999.90;;;9.50;99.90;;;;;;5017179;28;20166;-80
2021/03/15 11:12:42;;;;;;;1999.90;999.90;;;9.40;99.90;;;;;;5017460;28;20154;-80
2021/03/15 11:15:38;;;;;;;1999.90;999.90;;;9.10;99.90;;;;;;5017451;28;20180;-79
2021/03/15 11:18:03;;;;;;;1999.90;999.90;;;9.00;99.90;;;;;;5032585;28;20174;-82
2021/03/15 11:20:41;;;;;;;1999.90;999.90;;;8.80;99.90;;;;;;5016783;28;20169;-82
2021/03/15 11:23:10;;;;;;;1999.90;999.90;;;8.40;99.90;;;;;;5017470;28;20212;-83
2021/03/15 11:25:37;;;;;;;1999.90;999.90;;;8.20;99.90;;;;;;5016856;28;20189;-82
2021/03/15 11:28:12;;;;;;;1999.90;999.90;;;7.90;99.90;;;;;;5032656;28;20174;-82
2021/03/15 11:30:38;;;;;;;1999.90;999.90;;;7.60;99.90;;;;;;5019547;28;20161;-82
2021/03/15 11:33:09;;;;;;;1999.90;999.90;;;7.50;99.90;;;;;;5034568;28;20208;-82
2021/03/15 11:35:40;;;;;;;1999.90;999.90;;;7.50;99.90;;;;;;5019993;28;20181;-82
2021/03/15 11:38:09;;;;;;;1999.90;999.90;;;7.40;99.90;;;;;;5019407;28;20252;-82
2021/03/15 11:40:38;;;;;;;1999.90;999.90;;;7.50;99.90;;;;;;5020546;28;20172;-82
2021/03/15 11:43:05;;;;;;;1999.90;999.90;;;7.70;99.90;;;;;;5019020;28;20569;-82
2021/03/15 11:45:31;;;;;;;1999.90;999.90;;;7.70;99.90;;;;;;5033417;28;20177;-81
2021/03/15 11:47:57;;;;;;;1999.90;999.90;;;7.90;99.90;;;;;;5033347;28;20196;-82
2021/03/15 11:50:26;;;;;;;1999.90;999.90;;;8.10;99.90;;;;;;5018205;28;20162;-81
2021/03/15 11:52:52;;;;;;;1999.90;999.90;;;8.40;99.90;;;;;;5032937;23;20725;-82
2021/03/15 11:55:21;;;;;;;1999.90;999.90;;;8.70;99.90;;;;;;5037139;28;20187;-83
2021/03/15 11:58:07;;;;;;;1999.90;999.90;;;9.00;99.90;;;;;;5037585;28;20298;-83
2021/03/15 12:01:16;;;;;;;1999.90;999.90;;;9.30;99.90;;;;;;5037068;28;20175;-82
2021/03/15 12:16:11;;;;;;;1999.90;999.90;;;9.50;99.90;;;;;;5011123;23;20252;-83
2021/03/15 12:18:40;;;;;;;1999.90;999.90;;;9.70;99.90;;;;;;4923660;29;20176;-83
2021/03/15 12:21:11;;;;;;;1999.90;999.90;;;9.90;99.90;;;;;;4940149;29;20184;-82
2021/03/15 12:23:45;;;;;;;1999.90;999.90;;;10.10;99.90;;;;;;4940515;29;20240;-82
2021/03/15 12:26:29;;;;;;;1999.90;999.90;;;10.30;99.90;;;;;;4939863;29;20169;-83
2021/03/15 12:28:58;;;;;;;1999.90;999.90;;;10.30;99.90;;;;;;4940549;29;20515;-82
2021/03/15 12:31:23;;;;;;;1999.90;999.90;;;10.30;99.90;;;;;;4939886;29;20195;-82
2021/03/15 12:33:55;;;;;;;1999.90;999.90;;;10.10;99.90;;;;;;4940345;29;20692;-83
2021/03/15 12:36:23;;;;;;;1999.90;999.90;;;9.90;99.90;;;;;;4923483;29;20161;-82
2021/03/15 12:38:49;;;;;;;1999.90;999.90;;;9.80;99.90;;;;;;4922795;29;20601;-82
2021/03/15 12:41:21;;;;;;;1999.90;999.90;;;9.80;99.90;;;;;;4940001;29;20165;-82
2021/03/15 12:43:59;;;;;;;1999.90;999.90;;;10.00;99.90;;;;;;4939732;29;20212;-82
2021/03/15 12:46:28;;;;;;;1999.90;999.90;;;10.00;99.90;;;;;;4919017;29;20596;-82
2021/03/15 12:48:56;;;;;;;1999.90;999.90;;;9.70;99.90;;;;;;4939952;29;20173;-82
2021/03/15 12:51:50;;;;;;;1999.90;999.90;;;9.60;99.90;;;;;;4939144;29;20187;-81
2021/03/15 12:54:17;;;;;;;1999.90;999.90;;;9.60;99.90;;;;;;4934668;29;20357;-82
2021/03/15 12:56:49;;;;;;;1999.90;999.90;;;9.70;99.90;;;;;;4938727;29;20169;-82
2021/03/15 12:59:24;;;;;;;1999.90;999.90;;;9.80;99.90;;;;;;4939319;29;20510;-82
2021/03/15 13:01:50;;;;;;;1999.90;999.90;;;10.00;99.90;;;;;;4942327;29;20157;-82
2021/03/15 13:04:44;;;;;;;1999.90;999.90;;;10.20;99.90;;;;;;4942626;29;20204;-82
2021/03/15 13:07:58;;;;;;;1999.90;999.90;;;10.10;99.90;;;;;;4942928;29;20204;-82
2021/03/15 13:10:30;;;;;;;1999.90;999.90;;;10.00;99.90;;;;;;4932637;29;20177;-81
2021/03/15 13:13:09;;;;;;;1999.90;999.90;;;9.80;99.90;;;;;;4942453;29;20279;-82
2021/03/15 13:15:38;;;;;;;1999.90;999.90;;;9.80;99.90;;;;;;4942174;29;20200;-82
2021/03/15 13:18:04;;;;;;;1999.90;999.90;;;9.90;99.90;;;;;;4941825;29;20169;-81
2021/03/15 13:20:38;;;;;;;1999.90;999.90;;;10.30;99.90;;;;;;4925092;29;20215;-81
2021/03/15 13:23:12;;;;;;;1999.90;999.90;;;10.60;99.90;;;;;;4941944;29;20231;-81
2021/03/15 13:25:40;;;;;;;1999.90;999.90;;;10.80;99.90;;;;;;4942238;29;20238;-82
2021/03/15 13:28:24;;;;;;;1999.90;999.90;;;11.00;99.90;;;;;;4941410;29;20169;-82
2021/03/15 13:30:49;;;;;;;1999.90;999.90;;;11.00;99.90;;;;;;4941382;29;20207;-82
2021/03/15 13:33:26;;;;;;;1999.90;999.90;;;11.10;99.90;;;;;;4924298;29;20644;-81
2021/03/15 13:36:05;;;;;;;1999.90;999.90;;;11.10;99.90;;;;;;4924152;29;21031;-82
2021/03/15 13:38:40;;;;;;;1999.90;999.90;;;11.00;99.90;;;;;;4941440;29;20752;-82